Time;durP1;ratioP1;P1;durP2;ratioP2;P2;SDS_P1;SDS_P2;PMS_P1;PMS_P2;Temp;Humidity;BMP_temperature;BMP_pressure;BME280_temperature;BME280_humidity;BME280_pressure;Samples;Min_cycle;Max_cycle;Signal;HPM_P1;HPM_P2
2022/11/05 00:10:51;;;;;;;10.48;5.60;;;;;;;5.26;100.00;101524.84;5110187;28;19957;-74
2022/11/05 00:19:05;;;;;;;13.23;7.63;;;;;;;5.11;100.00;101532.47;5115672;28;20038;-74
2022/11/05 00:26:57;;;;;;;12.18;6.60;;;;;;;4.92;100.00;101534.84;5090377;28;20278;-74
2022/11/05 00:29:22;;;;;;;12.95;6.75;;;;;;;4.88;100.00;101537.38;5109518;28;20106;-74
2022/11/05 00:31:48;;;;;;;14.02;7.15;;;;;;;4.83;100.00;101536.47;5115391;28;20027;-74
2022/11/05 00:34:13;;;;;;;12.77;8.05;;;;;;;4.79;100.00;101535.56;5114876;28;20027;-74
2022/11/05 00:36:38;;;;;;;11.05;7.63;;;;;;;4.74;100.00;101537.25;5115308;28;20028;-74
2022/11/05 00:39:04;;;;;;;11.68;7.03;;;;;;;4.74;100.00;101549.25;5115574;28;20024;-74
2022/11/05 00:41:29;;;;;;;11.52;7.47;;;;;;;4.70;100.00;101556.09;5114575;28;20031;-74
2022/11/05 00:46:39;;;;;;;;;;;;;;;4.65;100.00;101561.22;5104498;28;20088;-74
2022/11/05 00:52:54;;;;;;;11.25;6.03;;;;;;;4.62;100.00;101565.50;5096842;28;20377;-75
2022/11/05 00:54:33;;;;;;;13.80;6.75;;;;;;;4.59;100.00;101568.91;5095132;28;20466;-75
2022/11/05 00:56:58;;;;;;;9.30;6.07;;;;;;;4.58;100.00;101577.50;5111649;28;20059;-75
2022/11/05 00:59:23;;;;;;;12.10;6.80;;;;;;;4.53;100.00;101573.97;5101967;28;20036;-74
2022/11/05 01:01:48;;;;;;;10.60;6.55;;;;;;;4.43;100.00;101557.50;5096826;28;20032;-75
2022/11/05 01:04:14;;;;;;;12.80;6.40;;;;;;;4.49;100.00;101579.97;5103137;28;20480;-75
2022/11/05 01:06:39;;;;;;;14.52;6.97;;;;;;;4.43;100.00;101580.75;5092879;28;20028;-75
2022/11/05 01:09:04;;;;;;;14.25;6.30;;;;;;;4.38;100.00;101582.41;5092551;28;20023;-75
2022/11/05 01:11:32;;;;;;;11.65;6.90;;;;;;;4.34;100.00;101582.31;5096275;28;20032;-75
2022/11/05 01:14:06;;;;;;;12.90;7.47;;;;;;;4.29;100.00;101587.44;5093578;28;20531;-74
2022/11/05 01:16:32;;;;;;;15.60;7.50;;;;;;;4.25;100.00;101585.66;5099387;28;20493;-74
2022/11/05 01:18:58;;;;;;;13.20;7.97;;;;;;;4.15;100.00;101582.09;5103241;28;20024;-74
2022/11/05 01:21:23;;;;;;;16.77;8.13;;;;;;;4.20;100.00;101598.47;5102582;28;20036;-74
2022/11/05 01:23:49;;;;;;;13.13;7.43;;;;;;;4.18;100.00;101602.75;5094385;28;20089;-74
2022/11/05 01:26:14;;;;;;;11.88;7.13;;;;;;;4.15;100.00;101607.00;5105275;28;20600;-74
2022/11/05 01:28:39;;;;;;;10.68;7.03;;;;;;;4.19;100.00;101603.63;5094670;28;20080;-74
2022/11/05 01:31:04;;;;;;;9.77;6.93;;;;;;;4.17;100.00;101605.31;5098471;28;20024;-74
2022/11/05 01:33:30;;;;;;;13.02;7.65;;;;;;;4.13;100.00;101612.16;5109156;28;20020;-75
2022/11/05 01:35:56;;;;;;;15.50;7.82;;;;;;;4.16;100.00;101616.50;5097890;28;20027;-74
2022/11/05 01:38:22;;;;;;;11.50;7.82;;;;;;;4.14;100.00;101602.69;5100413;28;20072;-75
2022/11/05 01:40:47;;;;;;;15.85;8.15;;;;;;;4.16;100.00;101614.78;5089501;28;20437;-74
2022/11/05 01:43:19;;;;;;;15.00;7.40;;;;;;;4.15;100.00;101610.47;5093140;28;20024;-74
2022/11/05 01:45:48;;;;;;;11.32;7.85;;;;;;;4.16;100.00;101617.34;5102492;28;20020;-75
2022/11/05 01:48:18;;;;;;;12.27;7.43;;;;;;;4.17;100.00;101616.50;5108261;28;20039;-75
2022/11/05 01:50:49;;;;;;;11.75;7.60;;;;;;;4.17;100.00;101615.63;5099429;28;20141;-74
2022/11/05 01:53:36;;;;;;;12.48;7.93;;;;;;;4.09;100.00;101610.38;5100132;28;20028;-74
2022/11/05 01:56:08;;;;;;;11.85;7.35;;;;;;;4.09;100.00;101609.50;5080766;28;20555;-75
2022/11/05 01:58:42;;;;;;;16.02;7.57;;;;;;;4.13;100.00;101619.03;5090806;28;20116;-75
2022/11/05 02:01:08;;;;;;;12.32;7.68;;;;;;;4.09;100.00;101614.66;5093963;28;20073;-74
2022/11/05 02:03:33;;;;;;;11.13;7.65;;;;;;;4.06;100.00;101605.16;5104405;28;20028;-75
2022/11/05 02:06:01;;;;;;;11.90;8.02;;;;;;;4.08;100.00;101602.59;5104364;28;20467;-74
2022/11/05 02:08:38;;;;;;;14.57;8.40;;;;;;;4.06;100.00;101604.31;5094897;28;20028;-74
2022/11/05 02:11:04;;;;;;;17.08;8.40;;;;;;;3.96;100.00;101590.38;5096143;28;20027;-74
2022/11/05 02:13:29;;;;;;;14.90;8.27;;;;;;;3.98;100.00;101599.00;5099328;28;20054;-74
2022/11/05 02:16:09;;;;;;;13.85;8.52;;;;;;;3.95;100.00;101597.22;5090258;28;20487;-74
2022/11/05 02:18:46;;;;;;;12.98;8.70;;;;;;;3.95;100.00;101598.94;5089223;28;20028;-74
2022/11/05 02:21:44;;;;;;;11.27;8.13;;;;;;;3.93;100.00;101598.06;5091770;28;20024;-74
2022/11/05 02:24:18;;;;;;;13.93;9.32;;;;;;;3.92;100.00;101599.78;5091461;28;20024;-75
2022/11/05 02:26:46;;;;;;;;;;;;;;;3.90;100.00;101604.03;5093159;28;20031;-74
2022/11/05 02:29:42;;;;;;;16.23;8.57;;;;;;;3.88;100.00;101605.72;5090835;28;19950;-75
2022/11/05 02:32:18;;;;;;;13.68;8.90;;;;;;;3.85;100.00;101605.66;5091412;28;20062;-75
2022/11/05 02:35:08;;;;;;;13.20;8.93;;;;;;;3.86;100.00;101602.28;5091185;28;20043;-75
2022/11/05 02:37:40;;;;;;;13.60;9.27;;;;;;;3.84;100.00;101597.91;5081514;28;20024;-75
2022/11/05 02:40:10;;;;;;;15.45;8.75;;;;;;;3.81;100.00;101598.72;5089463;28;20024;-74
2022/11/05 02:42:41;;;;;;;19.08;10.07;;;;;;;3.78;100.00;101601.25;5091795;28;20032;-74
2022/11/05 02:45:31;;;;;;;17.15;9.80;;;;;;;3.76;100.00;101595.22;5091083;28;20064;-75
2022/11/05 02:48:20;;;;;;;19.30;10.18;;;;;;;3.71;100.00;101599.44;5078908;28;20040;-75
2022/11/05 02:51:04;;;;;;;19.00;10.27;;;;;;;3.65;100.00;101599.31;5088807;28;20403;-74
2022/11/05 02:53:50;;;;;;;17.10;9.88;;;;;;;3.65;100.00;101596.75;5086740;28;20112;-75
2022/11/05 02:56:23;;;;;;;15.95;11.13;;;;;;;3.58;100.00;101590.63;5091822;28;20513;-75
2022/11/05 02:58:48;;;;;;;17.58;11.35;;;;;;;3.62;100.00;101596.69;5099920;28;20086;-75
2022/11/05 03:01:14;;;;;;;17.42;10.43;;;;;;;3.57;100.00;101594.03;5099285;28;20027;-75
2022/11/05 03:03:43;;;;;;;15.55;11.00;;;;;;;3.56;100.00;101594.88;5105084;28;20111;-74
2022/11/05 03:06:44;;;;;;;20.05;11.55;;;;;;;3.54;100.00;101594.00;5102215;28;20036;-75
2022/11/05 03:09:28;;;;;;;16.15;11.10;;;;;;;3.54;100.00;101603.44;5086876;28;20062;-75
2022/11/05 03:12:31;;;;;;;18.33;10.90;;;;;;;3.50;100.00;101598.22;5090269;28;20494;-75
2022/11/05 03:15:43;;;;;;;16.73;11.02;;;;;;;3.47;100.00;101593.00;5092856;28;20391;-75
2022/11/05 03:18:12;;;;;;;17.85;11.35;;;;;;;3.45;100.00;101598.97;5082959;28;20123;-75
2022/11/05 03:21:10;;;;;;;18.88;11.60;;;;;;;3.44;100.00;101598.13;5100328;28;20098;-75
2022/11/05 03:23:44;;;;;;;24.15;12.57;;;;;;;3.40;100.00;101591.19;5102467;28;20028;-75
2022/11/05 03:26:27;;;;;;;19.15;12.57;;;;;;;3.42;100.00;101594.63;5091170;28;20020;-74
2022/11/05 03:29:18;;;;;;;17.65;12.27;;;;;;;3.38;100.00;101598.00;5097164;28;20494;-75
2022/11/05 03:31:46;;;;;;;20.00;12.68;;;;;;;3.40;100.00;101603.16;5106525;28;20505;-75
2022/11/05 03:34:14;;;;;;;17.83;12.70;;;;;;;3.35;100.00;101597.94;5105685;28;20027;-75
2022/11/05 03:36:44;;;;;;;19.98;12.88;;;;;;;3.35;100.00;101608.25;5100713;28;20077;-74
2022/11/05 03:39:14;;;;;;;24.95;13.27;;;;;;;3.33;100.00;101606.47;5097974;28;20093;-75
2022/11/05 03:41:42;;;;;;;27.10;15.43;;;;;;;3.30;100.00;101604.72;5090697;28;20028;-74
2022/11/05 03:44:12;;;;;;;22.02;14.57;;;;;;;3.33;100.00;101603.91;5089143;28;20375;-75
2022/11/05 03:46:41;;;;;;;22.73;14.60;;;;;;;3.35;100.00;101607.38;5105313;28;20032;-74
2022/11/05 03:49:11;;;;;;;20.85;14.45;;;;;;;3.36;100.00;101609.97;5093709;28;20032;-74
2022/11/05 03:51:50;;;;;;;24.05;16.05;;;;;;;3.35;100.00;101612.53;5097512;28;20035;-75
2022/11/05 03:54:15;;;;;;;28.65;16.08;;;;;;;3.31;100.00;101601.31;5094026;28;20035;-74
2022/11/05 03:56:55;;;;;;;22.08;15.73;;;;;;;3.32;100.00;101612.47;5111366;28;20066;-74
2022/11/05 03:59:21;;;;;;;26.15;16.83;;;;;;;3.31;100.00;101613.34;5093581;28;20107;-74
2022/11/05 04:01:48;;;;;;;31.00;17.52;;;;;;;3.30;100.00;101609.88;5101903;28;20027;-74
2022/11/05 04:04:13;;;;;;;25.60;16.92;;;;;;;3.28;100.00;101612.44;5098210;28;20024;-74
2022/11/05 04:14:51;;;;;;;30.92;16.67;;;;;;;3.25;100.00;101612.38;5091627;28;20386;-74
2022/11/05 04:17:16;;;;;;;24.48;16.70;;;;;;;3.25;100.00;101619.22;5077217;28;20025;-74
2022/11/05 04:25:14;;;;;;;25.70;18.27;;;;;;;3.18;100.00;101625.97;5095050;28;20047;-75
2022/11/05 04:27:40;;;;;;;29.80;18.45;;;;;;;3.18;100.00;101625.13;5110993;28;20051;-75
2022/11/05 04:30:18;;;;;;;32.40;19.77;;;;;;;3.15;100.00;101627.63;5109221;28;20066;-74
2022/11/05 04:33:14;;;;;;;27.85;19.25;;;;;;;3.19;100.00;101626.84;5104221;28;20049;-74
2022/11/05 04:35:41;;;;;;;26.70;19.40;;;;;;;3.15;100.00;101617.31;5099335;27;20039;-74
2022/11/05 04:38:09;;;;;;;28.63;20.50;;;;;;;3.20;100.00;101633.72;5098449;28;20034;-75
2022/11/05 04:40:35;;;;;;;30.00;20.05;;;;;;;3.18;100.00;101623.41;5092350;28;20039;-75
2022/11/05 04:43:01;;;;;;;30.25;19.40;;;;;;;3.17;100.00;101621.69;5102214;28;20027;-75
2022/11/05 04:45:29;;;;;;;34.88;20.80;;;;;;;3.17;100.00;101624.25;5100502;28;20459;-75
2022/11/05 04:47:54;;;;;;;34.13;19.67;;;;;;;3.21;100.00;101630.34;5081270;28;20036;-75
2022/11/05 04:50:20;;;;;;;32.35;21.27;;;;;;;3.12;100.00;101625.84;5106094;28;20031;-74
2022/11/05 04:52:45;;;;;;;34.88;21.80;;;;;;;3.23;100.00;101636.38;5093325;28;20028;-74
2022/11/05 04:55:11;;;;;;;37.00;21.92;;;;;;;3.26;100.00;101639.88;5104496;28;20436;-75
2022/11/05 04:57:36;;;;;;;38.75;21.95;;;;;;;3.29;100.00;101641.63;5111485;28;20070;-75
2022/11/05 05:00:03;;;;;;;33.78;22.08;;;;;;;3.34;100.00;101640.03;5100074;28;20027;-74
2022/11/05 05:02:28;;;;;;;39.17;23.05;;;;;;;3.41;100.00;101646.16;5102665;28;20030;-74
2022/11/05 05:04:54;;;;;;;38.90;24.02;;;;;;;3.46;100.00;101647.97;5102395;28;20380;-74
2022/11/05 05:07:19;;;;;;;37.80;23.95;;;;;;;3.55;100.00;101651.56;5114280;28;20475;-75
2022/11/05 05:09:44;;;;;;;39.92;24.75;;;;;;;3.61;100.00;101647.41;5102601;28;20032;-74
2022/11/05 05:12:09;;;;;;;36.72;24.27;;;;;;;3.63;100.00;101653.47;5114555;28;20367;-74
2022/11/05 05:14:35;;;;;;;38.05;24.05;;;;;;;3.59;100.00;101654.22;5108455;28;20043;-75
2022/11/05 05:17:00;;;;;;;39.03;23.65;;;;;;;3.57;100.00;101649.91;5109572;28;20097;-74
2022/11/05 05:19:26;;;;;;;40.90;23.33;;;;;;;3.54;100.00;101650.72;5093174;28;20032;-75
2022/11/05 05:21:51;;;;;;;38.25;23.73;;;;;;;3.49;100.00;101654.91;5096397;28;20086;-74
2022/11/05 05:24:18;;;;;;;37.60;24.55;;;;;;;3.46;100.00;101652.25;5112196;28;20062;-75
2022/11/05 05:26:48;;;;;;;33.58;21.60;;;;;;;3.41;100.00;101659.06;5114908;28;20024;-75
2022/11/05 05:29:15;;;;;;;35.42;21.92;;;;;;;3.30;100.00;101656.25;5103046;28;20020;-75
2022/11/05 05:31:41;;;;;;;40.50;21.98;;;;;;;3.29;100.00;101662.25;5106486;28;20032;-75
2022/11/05 05:34:10;;;;;;;32.40;21.83;;;;;;;3.24;100.00;101661.31;5101561;28;20608;-75
2022/11/05 05:36:36;;;;;;;34.05;22.33;;;;;;;3.18;100.00;101664.63;5110235;28;20069;-75
2022/11/05 05:39:04;;;;;;;35.55;22.27;;;;;;;3.18;100.00;101666.34;5107493;28;20481;-75
2022/11/05 05:41:29;;;;;;;35.60;21.95;;;;;;;3.15;100.00;101672.31;5105911;28;20035;-75
2022/11/05 05:43:54;;;;;;;35.03;21.38;;;;;;;3.17;100.00;101673.22;5100866;28;20074;-75
2022/11/05 05:46:20;;;;;;;36.25;22.85;;;;;;;2.83;100.00;101614.09;5106669;28;20426;-75
2022/11/05 05:48:50;;;;;;;42.75;22.70;;;;;;;3.18;100.00;101676.66;5094069;28;20044;-75
2022/11/05 05:51:16;;;;;;;36.40;23.10;;;;;;;3.09;100.00;101663.56;5097007;28;20028;-75
2022/11/05 05:53:41;;;;;;;35.67;22.50;;;;;;;3.13;100.00;101673.97;5100020;28;20028;-75
2022/11/05 05:56:06;;;;;;;36.85;24.17;;;;;;;2.96;100.00;101647.88;5095816;28;20020;-75
2022/11/05 05:58:34;;;;;;;37.25;22.13;;;;;;;3.09;100.00;101671.31;5102827;28;20024;-75
2022/11/05 06:01:08;;;;;;;39.95;22.45;;;;;;;3.04;100.00;101669.50;5103043;28;20102;-75
2022/11/05 06:03:34;;;;;;;36.72;22.33;;;;;;;3.02;100.00;101672.88;5100706;28;20606;-75
2022/11/05 06:06:01;;;;;;;34.38;21.08;;;;;;;3.00;100.00;101670.25;5097311;28;20073;-74
2022/11/05 06:08:27;;;;;;;34.38;21.55;;;;;;;3.01;100.00;101682.31;5098366;28;20031;-75
2022/11/05 06:10:52;;;;;;;32.70;20.48;;;;;;;3.02;100.00;101676.31;5092334;28;20036;-75
2022/11/05 06:13:17;;;;;;;40.17;21.75;;;;;;;3.02;100.00;101668.59;5093212;28;20035;-75
2022/11/05 06:15:43;;;;;;;35.25;21.63;;;;;;;3.02;100.00;101675.47;5093353;28;20031;-75
2022/11/05 06:18:08;;;;;;;34.45;21.73;;;;;;;3.02;100.00;101673.75;5097031;28;20028;-75
2022/11/05 06:20:33;;;;;;;38.30;21.73;;;;;;;3.01;100.00;101671.16;5106393;28;20081;-75
2022/11/05 06:22:58;;;;;;;40.00;22.38;;;;;;;3.01;100.00;101690.06;5100628;28;20379;-75
2022/11/05 06:25:24;;;;;;;36.72;20.58;;;;;;;2.96;100.00;101676.19;5099754;28;20019;-75
2022/11/05 06:27:50;;;;;;;36.85;22.25;;;;;;;3.00;100.00;101682.28;5099949;28;20028;-75
2022/11/05 06:30:16;;;;;;;35.20;20.75;;;;;;;3.02;100.00;101688.34;5090317;28;20036;-75
2022/11/05 06:32:42;;;;;;;34.22;19.77;;;;;;;2.97;100.00;101677.06;5091645;28;20111;-75
2022/11/05 06:35:07;;;;;;;35.83;21.00;;;;;;;3.03;100.00;101684.91;5093746;28;20119;-75
2022/11/05 06:37:33;;;;;;;37.08;21.23;;;;;;;3.00;100.00;101685.72;5094488;28;20057;-75
2022/11/05 06:39:58;;;;;;;36.08;21.45;;;;;;;3.04;100.00;101682.41;5102546;28;20059;-75
2022/11/05 06:42:24;;;;;;;37.63;21.48;;;;;;;3.02;100.00;101696.94;5092764;28;20039;-75
2022/11/05 06:44:50;;;;;;;35.67;21.48;;;;;;;3.01;100.00;101694.34;5091037;28;20097;-75
2022/11/05 06:47:16;;;;;;;35.42;20.88;;;;;;;2.97;100.00;101692.50;5106928;28;20028;-75
2022/11/05 06:49:42;;;;;;;35.85;20.63;;;;;;;2.97;100.00;101693.38;5090194;28;20441;-75
2022/11/05 06:52:07;;;;;;;36.58;20.88;;;;;;;2.92;100.00;101689.84;5092459;28;20049;-75
2022/11/05 06:54:32;;;;;;;30.05;19.65;;;;;;;2.87;100.00;101682.84;5097648;28;20507;-75
2022/11/05 06:56:58;;;;;;;34.67;20.77;;;;;;;2.92;100.00;101684.72;5113014;28;20413;-75
2022/11/05 06:59:23;;;;;;;33.13;19.85;;;;;;;2.88;100.00;101693.22;5080377;28;20081;-75
2022/11/05 07:01:48;;;;;;;35.15;19.50;;;;;;;2.93;100.00;101701.88;5102209;28;20023;-75
2022/11/05 07:04:14;;;;;;;34.38;20.67;;;;;;;2.95;100.00;101702.81;5091371;28;20035;-75
2022/11/05 07:06:39;;;;;;;32.03;20.27;;;;;;;3.01;100.00;101710.66;5096983;28;20494;-75
2022/11/05 07:09:04;;;;;;;41.97;21.90;;;;;;;3.01;100.00;101705.50;5099256;28;20081;-75
2022/11/05 07:11:29;;;;;;;38.75;21.60;;;;;;;3.04;100.00;101710.72;5107008;28;20477;-75
2022/11/05 07:13:55;;;;;;;38.10;20.85;;;;;;;3.04;100.00;101715.88;5089964;28;20020;-75
2022/11/05 07:16:20;;;;;;;39.97;21.65;;;;;;;3.04;100.00;101715.00;5104741;28;20099;-75
2022/11/05 07:18:45;;;;;;;36.88;21.85;;;;;;;3.03;100.00;101705.53;5102499;28;20497;-75
2022/11/05 07:21:10;;;;;;;37.83;21.35;;;;;;;3.08;100.00;101716.81;5103969;28;20059;-75
2022/11/05 07:23:36;;;;;;;32.97;21.55;;;;;;;3.11;100.00;101721.16;5093218;28;20031;-74
2022/11/05 07:26:01;;;;;;;39.80;22.58;;;;;;;3.12;100.00;101716.03;5100518;28;20019;-75
2022/11/05 07:28:26;;;;;;;40.03;21.95;;;;;;;3.18;100.00;101715.31;5099974;28;20158;-75
2022/11/05 07:30:52;;;;;;;40.83;21.92;;;;;;;3.22;100.00;101730.84;5112550;28;20344;-74
2022/11/05 07:33:18;;;;;;;42.65;21.63;;;;;;;3.23;100.00;101723.97;5101508;28;20026;-75
2022/11/05 07:35:43;;;;;;;40.35;22.45;;;;;;;3.24;100.00;101718.88;5108957;28;20027;-75
2022/11/05 07:38:09;;;;;;;40.65;22.05;;;;;;;3.32;100.00;101728.47;5099065;28;20032;-75
2022/11/05 07:40:34;;;;;;;40.00;22.73;;;;;;;3.36;100.00;101735.41;5096833;28;20028;-74
2022/11/05 07:43:00;;;;;;;45.72;22.48;;;;;;;3.36;100.00;101733.69;5100137;28;20039;-75
2022/11/05 07:45:28;;;;;;;49.88;23.25;;;;;;;3.43;100.00;101738.16;5105343;28;20051;-75
2022/11/05 07:47:59;;;;;;;44.03;22.92;;;;;;;3.50;100.00;101740.03;5105319;28;20040;-75
2022/11/05 07:50:26;;;;;;;44.78;23.58;;;;;;;3.55;100.00;101745.25;5097296;28;20051;-74
2022/11/05 07:52:52;;;;;;;47.15;24.38;;;;;;;3.63;100.00;101740.25;5104896;28;20027;-75
2022/11/05 07:55:18;;;;;;;47.15;25.15;;;;;;;3.68;100.00;101746.38;5103311;28;20031;-75
2022/11/05 07:57:46;;;;;;;52.13;24.98;;;;;;;3.71;100.00;101741.28;5104943;28;20023;-74
2022/11/05 08:00:14;;;;;;;48.47;25.65;;;;;;;3.72;100.00;101737.84;5095389;28;20035;-75
2022/11/05 08:02:41;;;;;;;47.45;24.65;;;;;;;3.80;100.00;101736.28;5093993;28;20101;-74
2022/11/05 08:05:07;;;;;;;52.70;26.02;;;;;;;3.86;100.00;101735.50;5102291;28;20453;-75
2022/11/05 08:07:32;;;;;;;47.08;26.30;;;;;;;3.89;100.00;101726.16;5105600;28;20111;-75
2022/11/05 08:09:57;;;;;;;50.33;26.38;;;;;;;3.95;100.00;101736.56;5096317;28;20103;-75
2022/11/05 08:12:23;;;;;;;56.17;26.55;;;;;;;3.99;100.00;101740.09;5101538;28;20019;-75
2022/11/05 08:14:49;;;;;;;54.90;27.15;;;;;;;4.02;100.00;101731.50;5099862;28;20103;-75
2022/11/05 08:17:15;;;;;;;56.05;27.90;;;;;;;4.06;100.00;101735.91;5104796;28;20019;-75
2022/11/05 08:19:40;;;;;;;51.90;26.00;;;;;;;4.10;100.00;101738.53;5107554;27;20039;-75
2022/11/05 08:22:05;;;;;;;57.85;27.90;;;;;;;4.17;100.00;101742.97;5103841;28;20041;-75
2022/11/05 08:24:31;;;;;;;55.97;27.33;;;;;;;4.23;100.00;101737.03;5105605;28;20528;-75
2022/11/05 08:26:56;;;;;;;53.47;26.10;;;;;;;4.28;100.00;101743.13;5101366;28;20024;-74
2022/11/05 08:29:21;;;;;;;56.20;28.90;;;;;;;4.35;100.00;101732.09;5095283;28;20034;-75
2022/11/05 08:31:46;;;;;;;60.25;29.50;;;;;;;4.39;100.00;101733.88;5095759;28;20054;-75
2022/11/05 08:34:12;;;;;;;58.33;28.65;;;;;;;4.47;100.00;101732.28;5096522;28;20024;-75
2022/11/05 08:36:40;;;;;;;61.88;28.17;;;;;;;4.52;100.00;101739.25;5106840;28;20106;-75
2022/11/05 08:39:06;;;;;;;60.67;28.38;;;;;;;4.55;100.00;101734.13;5114784;28;20043;-75
2022/11/05 08:41:31;;;;;;;48.10;27.15;;;;;;;4.60;100.00;101740.22;5112643;28;20073;-74
2022/11/05 08:43:57;;;;;;;57.92;28.50;;;;;;;4.68;100.00;101736.91;5115571;28;20378;-75
2022/11/05 08:46:22;;;;;;;57.00;28.65;;;;;;;4.74;100.00;101737.84;5107308;28;20023;-74
2022/11/05 08:48:47;;;;;;;58.47;28.20;;;;;;;4.79;100.00;101739.66;5102669;28;20044;-75
2022/11/05 08:51:12;;;;;;;52.33;27.55;;;;;;;4.84;100.00;101743.19;5090342;28;20476;-75
2022/11/05 08:53:38;;;;;;;65.20;29.70;;;;;;;4.93;100.00;101747.59;5091858;28;20066;-75
2022/11/05 08:56:03;;;;;;;62.30;29.00;;;;;;;5.01;100.00;101739.97;5103422;28;20042;-75
2022/11/05 08:58:28;;;;;;;55.90;28.50;;;;;;;5.00;100.00;101733.03;5088756;28;20312;-75
2022/11/05 09:00:54;;;;;;;54.97;28.27;;;;;;;5.08;100.00;101736.59;5103764;28;20103;-74
2022/11/05 09:03:19;;;;;;;58.45;28.58;;;;;;;5.14;100.00;101726.34;5098113;28;20471;-75
2022/11/05 09:05:45;;;;;;;58.00;29.98;;;;;;;5.27;100.00;101737.72;5099413;28;20028;-75
2022/11/05 09:08:15;;;;;;;52.75;28.02;;;;;;;5.35;100.00;101733.50;5088774;28;20020;-74
2022/11/05 09:10:41;;;;;;;50.38;28.73;;;;;;;5.43;100.00;101744.81;5088602;28;20024;-74
2022/11/05 09:13:07;;;;;;;55.33;28.73;;;;;;;5.46;100.00;101734.53;5091114;28;20459;-75
2022/11/05 09:15:34;;;;;;;53.83;29.23;;;;;;;5.59;100.00;101740.66;5110002;28;20058;-74
2022/11/05 09:18:00;;;;;;;49.28;27.70;;;;;;;5.62;100.00;101741.59;5099473;28;20016;-75
2022/11/05 09:20:26;;;;;;;51.03;27.85;;;;;;;5.70;100.00;101741.69;5097133;28;20036;-74
2022/11/05 09:22:52;;;;;;;51.78;26.85;;;;;;;5.77;100.00;101733.13;5102101;28;20034;-74
2022/11/05 09:25:17;;;;;;;49.42;27.20;;;;;;;5.82;100.00;101738.34;5095347;28;20024;-74
2022/11/05 09:27:42;;;;;;;49.63;26.98;;;;;;;5.80;100.00;101724.53;5104413;28;20080;-75
2022/11/05 09:30:09;;;;;;;40.95;25.10;;;;;;;5.89;100.00;101729.81;5107525;28;20601;-75
2022/11/05 09:32:34;;;;;;;41.42;25.65;;;;;;;5.98;100.00;101736.81;5101046;28;20031;-75
2022/11/05 09:35:00;;;;;;;42.83;22.80;;;;;;;5.99;100.00;101739.44;5092592;28;20040;-74
2022/11/05 09:37:26;;;;;;;42.35;23.95;;;;;;;6.03;100.00;101738.59;5096877;28;20098;-75
2022/11/05 09:39:51;;;;;;;40.45;23.00;;;;;;;6.12;100.00;101745.59;5102594;28;20024;-74
2022/11/05 09:42:19;;;;;;;39.67;23.17;;;;;;;6.12;100.00;101736.97;5102231;28;20115;-75
2022/11/05 09:44:53;;;;;;;36.95;23.70;;;;;;;6.24;100.00;101752.59;5100993;28;20028;-75
2022/11/05 09:47:23;;;;;;;37.60;22.88;;;;;;;6.37;100.00;101756.16;5113972;28;20027;-75
2022/11/05 09:49:52;;;;;;;34.38;22.00;;;;;;;6.47;100.00;101748.47;5113177;28;20118;-75
2022/11/05 09:52:21;;;;;;;37.83;22.30;;;;;;;6.71;100.00;101750.38;5101015;28;20024;-75
2022/11/05 09:54:49;;;;;;;39.17;23.17;;;;;;;6.91;100.00;101755.69;5100319;28;20035;-74
2022/11/05 09:57:19;;;;;;;46.28;22.90;;;;;;;7.21;100.00;101751.53;5111843;28;20102;-74
2022/11/05 09:59:49;;;;;;;33.55;21.65;;;;;;;7.56;100.00;101754.28;5113521;28;20015;-74
2022/11/05 10:02:20;;;;;;;30.33;18.55;;;;;;;7.73;100.00;101756.94;5093494;27;20029;-74
2022/11/05 10:04:49;;;;;;;27.90;18.02;;;;;;;7.88;100.00;101759.56;5112726;28;20106;-74
2022/11/05 10:07:20;;;;;;;26.73;17.33;;;;;;;8.09;100.00;101760.47;5113782;27;20099;-74
2022/11/05 10:09:54;;;;;;;26.23;16.17;;;;;;;8.21;100.00;101765.69;5102773;28;20036;-74
2022/11/05 10:12:34;;;;;;;22.23;14.05;;;;;;;8.32;100.00;101763.09;5097881;28;20032;-73
2022/11/05 10:15:09;;;;;;;19.58;14.05;;;;;;;8.47;100.00;101765.75;5108438;28;20464;-74
2022/11/05 10:17:37;;;;;;;19.00;13.13;;;;;;;8.60;100.00;101777.88;5103850;28;20110;-74
2022/11/05 10:20:14;;;;;;;18.25;12.85;;;;;;;8.71;100.00;101779.59;5108298;28;20020;-74
2022/11/05 10:22:39;;;;;;;19.08;11.95;;;;;;;8.77;100.00;101787.38;5102854;28;20028;-74
2022/11/05 10:25:17;;;;;;;19.90;10.90;;;;;;;8.78;100.00;101776.09;5098286;28;20039;-74
2022/11/05 10:27:48;;;;;;;15.77;10.43;;;;;;;8.86;100.00;101790.84;5102593;28;20540;-74
2022/11/05 10:30:14;;;;;;;15.43;10.85;;;;;;;8.91;100.00;101790.81;5093907;28;20052;-74
2022/11/05 10:32:42;;;;;;;15.07;10.73;;;;;;;8.95;100.00;101792.53;5113194;28;20119;-74
2022/11/05 10:35:17;;;;;;;13.07;9.85;;;;;;;8.97;100.00;101795.16;5094913;28;20127;-74
2022/11/05 10:37:43;;;;;;;13.88;9.45;;;;;;;8.99;100.00;101796.91;5084577;28;20380;-74
2022/11/05 10:40:25;;;;;;;17.58;10.23;;;;;;;9.02;100.00;101786.44;5113173;28;20026;-74
2022/11/05 10:43:03;;;;;;;16.60;11.02;;;;;;;9.13;100.00;101792.53;5085787;28;20031;-74
2022/11/05 10:45:28;;;;;;;19.10;9.93;;;;;;;9.20;100.00;101789.91;5103792;28;21916;-74
2022/11/05 10:48:12;;;;;;;16.98;9.57;;;;;;;9.22;100.00;101789.03;5112760;28;20039;-74
2022/11/05 10:50:38;;;;;;;16.95;9.90;;;;;;;9.27;100.00;101786.41;5112933;28;20028;-74
2022/11/05 10:53:17;;;;;;;14.70;9.85;;;;;;;9.32;100.00;101777.72;5098053;28;20344;-74
2022/11/05 10:55:46;;;;;;;18.15;10.57;;;;;;;9.38;100.00;101771.63;5113008;28;20118;-74
2022/11/05 10:58:14;;;;;;;15.77;10.18;;;;;;;9.42;100.00;101773.34;5105282;28;20016;-74
2022/11/05 11:00:41;;;;;;;15.85;10.27;;;;;;;9.45;100.00;101775.94;5105320;28;20065;-74
2022/11/05 11:03:32;;;;;;;13.98;10.30;;;;;;;9.55;100.00;101776.78;5088799;28;20028;-75
2022/11/05 11:06:00;;;;;;;16.25;10.88;;;;;;;9.63;100.00;101774.13;5092845;28;20032;-75
2022/11/05 11:08:26;;;;;;;19.98;10.32;;;;;;;9.70;100.00;101783.63;5084979;28;20032;-75
2022/11/05 11:10:55;;;;;;;14.25;9.63;;;;;;;9.72;100.00;101774.09;5100240;28;20049;-75
2022/11/05 11:13:24;;;;;;;18.38;10.77;;;;;;;9.78;100.00;101780.13;5090258;28;20077;-74
2022/11/05 11:15:50;;;;;;;17.88;9.73;;;;;;;9.83;100.00;101767.94;5097239;28;20062;-74
2022/11/05 11:18:38;;;;;;;15.82;9.80;;;;;;;9.91;100.00;101773.13;5097563;28;20047;-75
2022/11/05 11:21:15;;;;;;;15.60;9.63;;;;;;;9.94;100.00;101770.50;5080582;28;20024;-74
2022/11/05 11:23:42;;;;;;;15.77;9.38;;;;;;;9.95;100.00;101766.16;5096428;28;20035;-74
2022/11/05 11:26:10;;;;;;;13.25;8.95;;;;;;;9.92;100.00;101759.22;5094032;28;20032;-75
2022/11/05 11:29:08;;;;;;;15.40;9.10;;;;;;;9.86;100.00;101754.03;5087139;28;20020;-75
2022/11/05 11:31:37;;;;;;;15.00;8.90;;;;;;;9.80;100.00;101760.13;5061478;28;20386;-75
2022/11/05 11:34:15;;;;;;;14.80;9.13;;;;;;;9.87;100.00;101755.75;5099723;28;20023;-74
2022/11/05 11:36:46;;;;;;;15.30;9.30;;;;;;;9.87;100.00;101750.53;5109880;28;20046;-75
2022/11/05 11:39:18;;;;;;;12.88;8.63;;;;;;;9.79;100.00;101766.22;5094600;28;20016;-74
2022/11/05 11:41:48;;;;;;;17.83;9.38;;;;;;;9.71;100.00;101757.59;5106103;28;20463;-74
2022/11/05 11:44:28;;;;;;;15.63;9.18;;;;;;;9.68;100.00;101761.94;5100795;28;20364;-74
2022/11/05 11:47:01;;;;;;;16.15;8.95;;;;;;;9.78;100.00;101758.44;5098861;28;20106;-74
2022/11/05 11:49:51;;;;;;;14.95;9.13;;;;;;;9.89;100.00;101764.44;5094733;28;20048;-76
2022/11/05 11:52:30;;;;;;;14.52;7.97;;;;;;;10.02;100.00;101763.47;5103332;28;20050;-76
2022/11/05 11:55:17;;;;;;;14.95;7.85;;;;;;;10.13;100.00;101752.97;5101734;28;20021;-75
2022/11/05 11:57:47;;;;;;;13.00;7.15;;;;;;;10.36;100.00;101755.44;5092655;28;20024;-75
2022/11/05 12:00:14;;;;;;;12.30;8.00;;;;;;;10.52;100.00;101751.84;5095204;28;20107;-78
2022/11/05 12:03:07;;;;;;;11.40;7.30;;;;;;;10.84;99.86;101757.66;5099421;28;20028;-79